createdAt,value
2023-03-06T00:00:49.646Z,10.18
2023-03-06T00:03:19.295Z,8.82
2023-03-06T00:05:46.412Z,7.55
2023-03-06T00:08:13.376Z,9.57
2023-03-06T00:10:40.554Z,10.07
2023-03-06T00:13:12.561Z,7.17
2023-03-06T00:15:39.422Z,8.65
2023-03-06T00:18:07.248Z,10.23
2023-03-06T00:20:35.098Z,10.32
2023-03-06T00:23:02.211Z,9.60
2023-03-06T00:25:29.150Z,10.23
2023-03-06T00:27:56.140Z,10.40
2023-03-06T00:30:24.907Z,7.57
2023-03-06T00:32:53.253Z,10.70
2023-03-06T00:35:20.240Z,11.32
2023-03-06T00:37:47.142Z,12.53
2023-03-06T00:40:17.951Z,12.38
2023-03-06T00:42:45.446Z,12.25
2023-03-06T00:45:12.697Z,12.68
2023-03-06T00:47:40.293Z,9.63
2023-03-06T00:50:08.465Z,13.57
2023-03-06T00:52:35.490Z,12.27
2023-03-06T00:55:02.728Z,13.70
2023-03-06T01:11:58.564Z,10.68
2023-03-06T01:14:25.190Z,14.38
2023-03-06T01:16:52.002Z,12.05
2023-03-06T01:19:18.642Z,13.60
2023-03-06T01:21:45.870Z,15.38
2023-03-06T01:24:12.435Z,11.27
2023-03-06T01:26:39.029Z,11.48
2023-03-06T01:29:06.486Z,13.73
2023-03-06T01:31:33.673Z,7.97
2023-03-06T01:34:00.677Z,11.37
2023-03-06T01:36:27.299Z,11.70
2023-03-06T01:38:53.929Z,12.65
2023-03-06T01:41:21.567Z,15.00
2023-03-06T01:43:48.954Z,15.65
2023-03-06T01:46:30.446Z,15.50
2023-03-06T01:49:08.530Z,13.85
2023-03-06T01:51:43.285Z,17.52
2023-03-06T01:54:17.836Z,15.95
2023-03-06T01:56:48.406Z,18.75
2023-03-06T01:59:15.163Z,20.55
2023-03-06T02:01:43.026Z,19.95
2023-03-06T02:04:10.385Z,8.95
2023-03-06T02:06:39.748Z,18.35
2023-03-06T02:09:06.968Z,20.05
2023-03-06T02:11:33.985Z,18.03
2023-03-06T02:14:00.661Z,21.10
2023-03-06T02:16:31.109Z,20.33
2023-03-06T02:19:00.392Z,15.38
2023-03-06T02:21:37.204Z,20.27
2023-03-06T02:24:18.843Z,19.40
2023-03-06T02:26:47.653Z,18.65
2023-03-06T02:29:21.732Z,23.23
2023-03-06T02:31:48.304Z,19.10
2023-03-06T02:34:14.857Z,18.58
2023-03-06T02:36:45.875Z,21.58
2023-03-06T02:39:13.531Z,24.63
2023-03-06T02:41:41.041Z,20.52
2023-03-06T02:44:07.956Z,26.98
2023-03-06T02:46:34.747Z,25.02
2023-03-06T02:49:01.403Z,19.70
2023-03-06T02:51:28.470Z,24.88
2023-03-06T02:53:55.125Z,23.20
2023-03-06T02:56:21.970Z,23.48
2023-03-06T02:58:48.607Z,22.10
2023-03-06T03:01:15.337Z,23.95
2023-03-06T03:03:42.071Z,19.17
2023-03-06T03:06:08.656Z,22.15
2023-03-06T03:08:35.334Z,23.15
2023-03-06T03:11:03.068Z,16.33
2023-03-06T03:13:29.722Z,22.25
2023-03-06T03:16:07.936Z,22.42
2023-03-06T03:18:35.739Z,22.15
2023-03-06T03:21:06.725Z,20.90
2023-03-06T03:23:33.423Z,22.95
2023-03-06T03:26:18.704Z,24.15
2023-03-06T03:28:45.732Z,22.58
2023-03-06T03:31:13.588Z,18.87
2023-03-06T03:33:40.880Z,18.13
2023-03-06T03:36:08.078Z,18.13
2023-03-06T03:38:35.077Z,18.63
2023-03-06T03:41:02.137Z,21.33
2023-03-06T03:43:28.826Z,18.73
2023-03-06T03:45:55.481Z,15.48
2023-03-06T03:48:22.077Z,15.60
2023-03-06T03:50:48.977Z,18.75
2023-03-06T03:53:15.582Z,16.50
2023-03-06T03:55:42.273Z,17.27
2023-03-06T03:58:08.814Z,17.05
2023-03-06T04:00:35.497Z,19.85
2023-03-06T04:03:02.053Z,11.45
2023-03-06T04:05:28.719Z,18.73
2023-03-06T04:07:55.308Z,19.20
2023-03-06T04:10:21.969Z,17.10
2023-03-06T04:12:48.715Z,20.15
2023-03-06T04:15:15.391Z,19.77
2023-03-06T04:17:42.010Z,20.15
2023-03-06T04:20:09.552Z,22.45
2023-03-06T04:22:36.206Z,17.73
2023-03-06T04:25:02.896Z,19.13
2023-03-06T04:27:29.488Z,21.80
2023-03-06T04:29:56.525Z,16.30
2023-03-06T04:32:24.036Z,19.73
2023-03-06T04:34:51.189Z,21.13
2023-03-06T04:37:22.966Z,24.10
2023-03-06T04:39:49.850Z,20.10
2023-03-06T04:42:16.727Z,21.65
2023-03-06T04:44:43.471Z,22.17
2023-03-06T04:47:10.678Z,22.05
2023-03-06T04:49:37.570Z,23.93
2023-03-06T04:52:04.657Z,24.33
2023-03-06T04:54:31.319Z,24.17
2023-03-06T04:56:58.036Z,22.80
2023-03-06T04:59:25.185Z,20.83
2023-03-06T05:01:52.246Z,23.80
2023-03-06T05:04:18.893Z,20.30
2023-03-06T05:06:45.577Z,25.40
2023-03-06T05:09:12.246Z,24.20
2023-03-06T05:11:38.828Z,27.85
2023-03-06T05:14:05.446Z,24.70
2023-03-06T05:16:32.086Z,18.55
2023-03-06T05:18:58.745Z,22.75
2023-03-06T05:21:25.420Z,25.00
2023-03-06T05:23:51.991Z,20.42
2023-03-06T05:26:18.584Z,28.08
2023-03-06T05:28:45.347Z,28.35
2023-03-06T05:31:12.195Z,27.23
2023-03-06T05:33:38.780Z,22.98
2023-03-06T05:36:08.277Z,19.92
2023-03-06T05:38:35.334Z,24.25
2023-03-06T05:41:01.960Z,27.43
2023-03-06T05:43:28.525Z,24.65
2023-03-06T05:46:03.238Z,19.83
2023-03-06T05:48:30.064Z,24.73
2023-03-06T05:50:57.968Z,25.77
2023-03-06T05:56:03.250Z,25.80
2023-03-06T05:58:31.224Z,21.27
2023-03-06T06:03:25.236Z,27.02
2023-03-06T06:05:52.989Z,24.30
2023-03-06T06:08:21.096Z,28.27
2023-03-06T06:10:47.702Z,26.85
2023-03-06T06:13:14.371Z,25.38
2023-03-06T06:15:40.963Z,21.23
2023-03-06T06:18:07.790Z,28.27
2023-03-06T06:20:35.607Z,28.10
2023-03-06T06:23:02.434Z,24.13
2023-03-06T06:25:33.055Z,26.85
2023-03-06T06:28:03.819Z,26.77
2023-03-06T06:30:31.536Z,20.13
2023-03-06T06:32:59.849Z,30.88
2023-03-06T06:35:27.143Z,23.90
2023-03-06T06:37:53.833Z,25.13
2023-03-06T06:40:21.262Z,26.67
2023-03-06T06:42:47.961Z,25.08
2023-03-06T06:45:15.012Z,25.95
2023-03-06T06:47:41.866Z,22.80
2023-03-06T06:50:13.510Z,21.53
2023-03-06T06:52:40.545Z,22.70
2023-03-06T06:55:07.563Z,23.80
2023-03-06T06:57:34.322Z,22.27
2023-03-06T07:00:11.361Z,18.02
2023-03-06T07:02:38.064Z,15.43
2023-03-06T07:05:05.698Z,20.98
2023-03-06T07:07:38.157Z,19.73
2023-03-06T07:10:08.584Z,19.80
2023-03-06T07:12:35.617Z,15.75
2023-03-06T07:15:02.965Z,17.10
2023-03-06T07:17:29.704Z,8.07
2023-03-06T07:19:56.382Z,10.30
2023-03-06T07:22:23.472Z,11.40
2023-03-06T07:24:50.185Z,10.90
2023-03-06T07:27:16.947Z,12.40
2023-03-06T07:36:55.652Z,8.13
2023-03-06T07:39:52.162Z,10.63
2023-03-06T07:42:21.590Z,19.23
2023-03-06T07:44:55.616Z,14.98
2023-03-06T07:47:29.853Z,19.58
2023-03-06T07:55:47.854Z,14.30
2023-03-06T07:58:41.883Z,18.35
2023-03-06T08:06:56.416Z,23.38
2023-03-06T08:09:51.332Z,22.58
2023-03-06T08:21:18.871Z,19.75
2023-03-06T08:27:27.210Z,24.10
2023-03-06T08:30:42.078Z,16.25
2023-03-06T08:42:27.953Z,24.60
2023-03-06T08:44:58.774Z,18.58
2023-03-06T08:47:25.756Z,13.98
2023-03-06T08:49:52.411Z,26.85
2023-03-06T08:52:20.299Z,25.25
2023-03-06T08:54:47.383Z,25.92
2023-03-06T08:57:14.042Z,18.30
2023-03-06T08:59:42.158Z,27.73
2023-03-06T09:02:12.892Z,23.35
2023-03-06T09:04:39.405Z,23.50
2023-03-06T09:07:07.824Z,19.30
2023-03-06T09:09:34.500Z,28.17
2023-03-06T09:12:08.467Z,29.85
2023-03-06T09:14:35.170Z,27.88
2023-03-06T09:17:01.739Z,24.10
2023-03-06T09:22:08.873Z,23.92
2023-03-06T09:24:37.769Z,24.40
2023-03-06T09:27:04.391Z,21.95
2023-03-06T09:29:30.922Z,20.05
2023-03-06T09:31:57.562Z,15.00
2023-03-06T09:34:24.125Z,20.67
2023-03-06T09:36:57.329Z,15.48
2023-03-06T09:39:26.410Z,19.95
2023-03-06T09:41:55.001Z,22.42
2023-03-06T09:44:26.056Z,20.80
2023-03-06T09:47:32.031Z,15.85
2023-03-06T09:50:22.096Z,24.63
2023-03-06T09:53:21.865Z,19.77
2023-03-06T09:55:56.864Z,18.45
2023-03-06T09:58:26.822Z,25.73
2023-03-06T10:01:25.414Z,14.90
2023-03-06T10:04:20.732Z,24.45
2023-03-06T10:06:50.329Z,21.95
2023-03-06T10:09:22.393Z,24.73
2023-03-06T10:12:02.458Z,18.17
2023-03-06T10:14:49.475Z,17.30
2023-03-06T10:17:21.599Z,21.83
2023-03-06T10:19:49.975Z,21.90
2023-03-06T10:22:33.384Z,18.42
2023-03-06T10:25:14.641Z,17.98
2023-03-06T10:27:48.580Z,21.17
2023-03-06T10:30:23.074Z,21.55
2023-03-06T10:32:58.364Z,16.75
2023-03-06T10:35:38.114Z,22.30
2023-03-06T10:38:31.220Z,20.23
2023-03-06T10:41:04.913Z,18.70
2023-03-06T10:43:36.491Z,12.25
2023-03-06T10:46:05.334Z,18.95
2023-03-06T10:48:36.058Z,16.65
2023-03-06T10:51:23.037Z,15.45
2023-03-06T10:54:19.727Z,14.63
2023-03-06T10:56:48.609Z,11.07
2023-03-06T10:59:17.269Z,12.85
2023-03-06T11:01:48.868Z,10.90
2023-03-06T11:04:23.013Z,13.77
2023-03-06T11:07:04.538Z,18.10
2023-03-06T11:09:33.240Z,18.30
2023-03-06T11:12:21.907Z,11.63
2023-03-06T11:15:07.051Z,22.27
2023-03-06T11:17:36.209Z,12.15
2023-03-06T11:20:14.814Z,14.38
2023-03-06T11:22:41.827Z,15.07
2023-03-06T11:25:14.113Z,18.43
2023-03-06T11:27:49.284Z,19.15
2023-03-06T11:30:23.434Z,12.18
2023-03-06T11:33:04.526Z,16.55
2023-03-06T11:35:41.205Z,19.58
2023-03-06T11:38:51.648Z,15.00
2023-03-06T11:42:02.903Z,22.58
2023-03-06T11:45:03.079Z,22.38
2023-03-06T11:47:38.549Z,19.65
2023-03-06T11:50:28.907Z,17.33
2023-03-06T11:53:20.025Z,15.57
2023-03-06T11:56:11.068Z,16.85
2023-03-06T11:59:23.076Z,15.00
2023-03-06T12:01:58.002Z,20.63
2023-03-06T12:04:52.602Z,18.55
2023-03-06T12:07:29.741Z,15.10
2023-03-06T12:10:23.667Z,8.93
2023-03-06T12:12:50.648Z,9.35
2023-03-06T12:15:42.104Z,8.68
2023-03-06T12:18:47.555Z,8.48
2023-03-06T12:21:44.394Z,15.55
2023-03-06T12:24:44.662Z,11.98
2023-03-06T12:27:32.192Z,17.35
2023-03-06T12:30:21.761Z,17.23
2023-03-06T12:32:51.675Z,9.82
2023-03-06T12:35:48.993Z,14.75
2023-03-06T12:39:02.375Z,11.00
2023-03-06T12:41:56.382Z,16.05
2023-03-06T12:44:54.138Z,14.98
2023-03-06T12:47:24.200Z,9.18
2023-03-06T12:49:55.926Z,16.05
2023-03-06T12:52:30.525Z,8.35
2023-03-06T12:55:08.983Z,15.50
2023-03-06T12:57:39.136Z,18.08
2023-03-06T13:00:06.520Z,18.83
2023-03-06T13:02:58.270Z,21.73
2023-03-06T13:05:50.696Z,9.80
2023-03-06T13:08:37.159Z,7.93
2023-03-06T13:11:18.868Z,11.13
2023-03-06T13:13:50.721Z,12.23
2023-03-06T13:16:35.831Z,12.85
2023-03-06T13:21:57.920Z,11.40
2023-03-06T13:30:45.037Z,17.42
2023-03-06T13:33:25.341Z,19.40
2023-03-06T13:35:54.864Z,19.20
2023-03-06T13:38:29.523Z,17.55
2023-03-06T13:41:35.078Z,22.80
2023-03-06T13:44:23.385Z,15.57
2023-03-06T13:46:57.193Z,12.27
2023-03-06T13:49:24.800Z,18.65
2023-03-06T13:51:57.233Z,18.10
2023-03-06T13:54:50.351Z,18.02
2023-03-06T13:57:43.083Z,10.45
2023-03-06T14:00:32.003Z,23.48
2023-03-06T14:03:41.463Z,17.38
2023-03-06T14:06:37.043Z,20.30
2023-03-06T14:09:13.816Z,20.83
2023-03-06T14:11:57.960Z,20.58
2023-03-06T14:14:34.655Z,20.83
2023-03-06T14:19:44.964Z,19.45
2023-03-06T14:25:28.075Z,18.20
2023-03-06T14:33:12.097Z,14.85
2023-03-06T14:38:20.330Z,14.63
2023-03-06T14:43:27.958Z,19.40
2023-03-06T14:48:44.703Z,16.75
2023-03-06T14:51:17.195Z,21.58
2023-03-06T14:53:45.743Z,24.80
2023-03-06T14:59:01.852Z,25.80
2023-03-06T15:01:40.141Z,24.25
2023-03-06T15:04:38.148Z,25.40
2023-03-06T15:07:12.948Z,23.70
2023-03-06T15:09:44.287Z,19.30
2023-03-06T15:12:23.121Z,20.65
2023-03-06T15:14:57.325Z,18.88
2023-03-06T15:17:32.819Z,20.27
2023-03-06T15:20:03.382Z,17.23
2023-03-06T15:22:41.104Z,17.42
2023-03-06T15:25:22.942Z,16.95
2023-03-06T15:27:55.675Z,16.75
2023-03-06T15:30:35.984Z,15.45
2023-03-06T15:33:28.590Z,16.58
2023-03-06T15:36:00.890Z,18.38
2023-03-06T15:38:42.734Z,17.15
2023-03-06T15:41:35.990Z,15.70
2023-03-06T15:44:12.546Z,16.35
2023-03-06T15:46:39.203Z,16.20
2023-03-06T15:49:14.629Z,16.13
2023-03-06T15:51:45.709Z,16.95
2023-03-06T15:54:15.680Z,16.17
2023-03-06T15:56:44.552Z,14.73
2023-03-06T15:59:22.216Z,16.10
2023-03-06T16:01:55.096Z,13.05
2023-03-06T16:04:23.354Z,16.08
2023-03-06T16:06:51.990Z,16.67
2023-03-06T16:12:03.628Z,12.50
2023-03-06T16:14:36.337Z,14.30
2023-03-06T16:19:45.222Z,12.48
2023-03-06T16:24:58.645Z,13.75
2023-03-06T16:27:35.909Z,16.13
2023-03-06T16:30:11.025Z,14.73
2023-03-06T16:38:20.450Z,12.57
2023-03-06T16:40:47.900Z,14.85
2023-03-06T16:43:23.147Z,13.18
2023-03-06T16:46:30.845Z,10.98
2023-03-06T16:51:49.616Z,14.27
2023-03-06T16:54:20.895Z,16.27
2023-03-06T16:59:43.281Z,15.23
2023-03-06T17:02:29.183Z,16.80
2023-03-06T19:09:04.815Z,17.48
2023-03-06T19:11:35.349Z,17.02
2023-03-06T19:14:11.144Z,17.63
2023-03-06T19:16:37.819Z,16.80
2023-03-06T19:19:07.839Z,14.82
2023-03-06T19:21:45.353Z,15.00
2023-03-06T19:24:30.630Z,15.90
2023-03-06T19:27:00.626Z,15.30
2023-03-06T19:29:33.713Z,15.98
2023-03-06T19:32:00.680Z,15.27
2023-03-06T19:34:28.737Z,15.30
2023-03-06T19:36:55.857Z,19.90
2023-03-06T19:39:22.764Z,14.00
2023-03-06T19:42:07.077Z,15.93
2023-03-06T19:44:57.228Z,13.07
2023-03-06T19:47:27.333Z,15.73
2023-03-06T19:50:04.933Z,14.43
2023-03-06T19:52:34.708Z,16.27
2023-03-06T19:55:02.465Z,16.48
2023-03-06T19:57:47.488Z,18.75
2023-03-06T20:00:29.254Z,12.43
2023-03-06T20:03:00.398Z,18.08
2023-03-06T20:05:35.403Z,17.08
2023-03-06T20:08:05.283Z,14.80
2023-03-06T20:10:36.131Z,16.13
2023-03-06T20:13:05.830Z,16.23
2023-03-06T20:15:36.895Z,15.02
2023-03-06T20:18:04.409Z,16.83
2023-03-06T20:20:31.094Z,16.77
2023-03-06T20:23:02.600Z,13.23
2023-03-06T20:25:29.177Z,13.75
2023-03-06T20:27:55.858Z,12.85
2023-03-06T20:30:23.088Z,15.18
2023-03-06T20:32:49.724Z,16.00
2023-03-06T20:35:16.519Z,14.82
2023-03-06T20:37:43.334Z,14.27
2023-03-06T20:40:10.765Z,13.25
2023-03-06T20:42:37.370Z,12.80
2023-03-06T20:45:04.337Z,15.95
2023-03-06T20:47:31.018Z,10.65
2023-03-06T20:49:57.739Z,7.95
2023-03-06T20:52:24.466Z,13.35
2023-03-06T20:54:51.285Z,12.85
2023-03-06T20:57:18.099Z,15.48
2023-03-06T20:59:45.491Z,16.35
2023-03-06T21:02:12.181Z,15.25
2023-03-06T21:04:41.107Z,14.73
2023-03-06T21:07:07.840Z,16.95
2023-03-06T21:09:37.714Z,16.92
2023-03-06T21:12:05.099Z,15.90
2023-03-06T21:14:31.839Z,18.33
2023-03-06T21:16:58.547Z,16.33
2023-03-06T21:19:25.537Z,16.67
2023-03-06T21:21:52.360Z,11.70
2023-03-06T21:24:20.966Z,15.00
2023-03-06T21:26:48.282Z,17.00
2023-03-06T21:29:14.938Z,12.53
2023-03-06T21:31:41.633Z,14.55
2023-03-06T21:34:08.332Z,18.20
2023-03-06T21:36:34.967Z,16.23
2023-03-06T21:39:01.859Z,13.98
2023-03-06T21:41:30.477Z,14.50
2023-03-06T21:43:59.615Z,18.40
2023-03-06T21:46:27.300Z,17.90
2023-03-06T21:48:54.838Z,17.52
2023-03-06T21:51:23.740Z,17.10
2023-03-06T21:53:52.147Z,19.45
2023-03-06T21:56:21.124Z,17.10
2023-03-06T21:58:47.994Z,12.35
2023-03-06T22:01:20.009Z,16.60
2023-03-06T22:03:46.714Z,17.38
2023-03-06T22:06:16.482Z,17.75
2023-03-06T22:08:44.137Z,18.45
2023-03-06T22:11:15.932Z,17.77
2023-03-06T22:13:42.973Z,18.73
2023-03-06T22:16:09.966Z,18.03
2023-03-06T22:18:37.530Z,18.40
2023-03-06T22:21:09.265Z,15.52
2023-03-06T22:23:36.405Z,14.45
2023-03-06T22:26:08.185Z,17.20
2023-03-06T22:28:35.276Z,18.50
2023-03-06T22:31:28.983Z,18.20
2023-03-06T22:33:58.170Z,18.52
2023-03-06T22:36:26.782Z,20.50
2023-03-06T22:38:58.146Z,14.90
2023-03-06T22:41:26.979Z,17.50
2023-03-06T22:43:59.247Z,19.30
2023-03-06T22:46:27.109Z,18.02
2023-03-06T22:51:23.325Z,17.88
2023-03-06T22:53:51.046Z,19.90
2023-03-06T22:56:19.967Z,16.58
2023-03-06T22:58:47.884Z,17.92
2023-03-06T23:03:45.504Z,18.25
2023-03-06T23:06:18.314Z,18.17
2023-03-06T23:08:49.953Z,21.10
2023-03-06T23:11:17.909Z,20.55
2023-03-06T23:16:14.061Z,14.13
2023-03-06T23:18:44.227Z,8.57
2023-03-06T23:21:14.077Z,11.48
2023-03-06T23:23:41.431Z,11.48
2023-03-06T23:26:08.965Z,17.27
2023-03-06T23:28:36.170Z,9.25
2023-03-06T23:31:11.215Z,15.90
2023-03-06T23:33:38.955Z,8.57
2023-03-06T23:36:11.963Z,14.63
2023-03-06T23:38:39.370Z,15.75
2023-03-06T23:41:16.474Z,8.70
2023-03-06T23:43:47.798Z,9.60
2023-03-06T23:46:49.496Z,8.65
2023-03-06T23:49:16.857Z,11.25
2023-03-06T23:51:46.348Z,14.15
2023-03-06T23:54:15.847Z,9.30
2023-03-06T23:56:45.428Z,5.68
2023-03-06T23:59:15.174Z,7.65
